createdAt,value
2023-03-13T00:01:02.930Z,8.96
2023-03-13T00:03:30.699Z,8.93
2023-03-13T00:05:59.196Z,8.97
2023-03-13T00:08:30.338Z,8.98
2023-03-13T00:10:59.525Z,8.99
2023-03-13T00:13:27.227Z,8.98
2023-03-13T00:16:01.681Z,9.02
2023-03-13T00:18:29.512Z,9.01
2023-03-13T00:21:01.008Z,9.03
2023-03-13T00:23:29.226Z,9.01
2023-03-13T00:25:59.558Z,9.04
2023-03-13T00:28:32.327Z,9.03
2023-03-13T00:31:04.997Z,9.04
2023-03-13T00:33:34.208Z,9.02
2023-03-13T00:36:02.876Z,9.03
2023-03-13T00:38:31.449Z,9.04
2023-03-13T00:41:06.250Z,9.07
2023-03-13T00:43:35.172Z,9.05
2023-03-13T00:46:03.309Z,9.05
2023-03-13T00:48:31.668Z,9.05
2023-03-13T00:51:00.158Z,9.06
2023-03-13T00:53:28.124Z,9.05
2023-03-13T00:55:57.520Z,9.07
2023-03-13T00:58:28.150Z,9.09
2023-03-13T01:00:56.968Z,9.08
2023-03-13T01:03:26.152Z,9.08
2023-03-13T01:05:58.583Z,9.09
2023-03-13T01:08:28.348Z,9.07
2023-03-13T01:11:00.773Z,9.09
2023-03-13T01:13:32.946Z,9.08
2023-03-13T01:16:04.095Z,9.07
2023-03-13T01:18:32.255Z,9.06
2023-03-13T01:21:00.112Z,9.07
2023-03-13T01:23:28.407Z,9.09
2023-03-13T01:25:57.139Z,9.10
2023-03-13T01:28:26.748Z,9.10
2023-03-13T01:30:56.961Z,9.11
2023-03-13T01:33:24.864Z,9.11
2023-03-13T01:35:52.703Z,9.11
2023-03-13T01:38:20.678Z,9.12
2023-03-13T01:40:50.139Z,9.15
2023-03-13T01:43:28.096Z,9.16
2023-03-13T01:46:03.609Z,9.16
2023-03-13T01:48:44.628Z,9.19
2023-03-13T01:51:17.938Z,9.20
2023-03-13T01:53:50.961Z,9.19
2023-03-13T01:56:21.700Z,8.97
2023-03-13T01:58:51.965Z,9.19
2023-03-13T02:01:21.817Z,9.25
2023-03-13T02:03:51.020Z,9.25
2023-03-13T02:06:19.536Z,9.26
2023-03-13T02:08:51.708Z,9.26
2023-03-13T02:11:41.633Z,9.25
2023-03-13T02:14:10.690Z,9.24
2023-03-13T02:16:40.808Z,9.27
2023-03-13T02:19:18.308Z,9.28
2023-03-13T02:21:51.185Z,9.26
2023-03-13T02:24:22.939Z,9.00
2023-03-13T02:26:52.274Z,9.21
2023-03-13T02:29:20.149Z,9.23
2023-03-13T02:31:49.008Z,9.24
2023-03-13T02:34:21.987Z,9.25
2023-03-13T02:36:50.462Z,8.98
2023-03-13T02:39:23.513Z,9.19
2023-03-13T02:41:54.228Z,9.20
2023-03-13T02:44:22.570Z,9.21
2023-03-13T02:46:53.297Z,9.20
2023-03-13T02:49:28.349Z,9.20
2023-03-13T02:52:01.030Z,9.20
2023-03-13T02:54:34.373Z,9.21
2023-03-13T02:57:05.825Z,9.21
2023-03-13T02:59:34.754Z,9.19
2023-03-13T03:02:03.240Z,9.17
2023-03-13T03:04:31.620Z,9.18
2023-03-13T03:06:59.743Z,9.16
2023-03-13T03:09:27.732Z,9.17
2023-03-13T03:11:59.173Z,9.16
2023-03-13T03:14:30.543Z,9.18
2023-03-13T03:16:58.631Z,9.15
2023-03-13T03:19:27.827Z,9.15
2023-03-13T03:21:55.747Z,9.15
2023-03-13T03:24:23.768Z,9.15
2023-03-13T03:26:51.646Z,9.15
2023-03-13T03:29:27.709Z,9.16
2023-03-13T03:31:58.337Z,9.17
2023-03-13T03:34:26.620Z,9.17
2023-03-13T03:36:55.184Z,9.17
2023-03-13T03:39:23.159Z,9.15
2023-03-13T03:41:51.373Z,9.19
2023-03-13T03:44:19.286Z,9.19
2023-03-13T03:46:54.378Z,9.20
2023-03-13T03:49:24.971Z,9.21
2023-03-13T03:51:53.173Z,9.22
2023-03-13T03:54:27.460Z,9.22
2023-03-13T03:56:56.164Z,9.24
2023-03-13T03:59:24.052Z,9.23
2023-03-13T04:01:59.793Z,9.25
2023-03-13T04:04:31.451Z,9.28
2023-03-13T04:07:04.540Z,9.27
2023-03-13T04:09:34.006Z,9.29
2023-03-13T04:12:03.546Z,9.30
2023-03-13T04:14:35.688Z,9.29
2023-03-13T04:17:07.157Z,9.32
2023-03-13T04:19:36.549Z,9.34
2023-03-13T04:22:04.512Z,9.34
2023-03-13T04:24:33.018Z,9.35
2023-03-13T04:27:02.553Z,9.36
2023-03-13T04:29:31.160Z,9.37
2023-03-13T04:32:14.542Z,9.38
2023-03-13T04:35:03.052Z,9.40
2023-03-13T04:37:49.617Z,9.40
2023-03-13T04:40:52.721Z,9.14
2023-03-13T04:43:39.115Z,9.36
2023-03-13T04:46:13.999Z,9.40
2023-03-13T04:49:06.550Z,9.42
2023-03-13T04:52:00.393Z,9.45
2023-03-13T04:54:28.612Z,9.46
2023-03-13T04:57:26.101Z,9.47
2023-03-13T05:00:00.151Z,9.49
2023-03-13T05:02:47.231Z,9.51
2023-03-13T05:05:36.281Z,9.53
2023-03-13T05:08:20.226Z,9.54
2023-03-13T05:11:17.134Z,9.57
2023-03-13T05:14:00.765Z,9.62
2023-03-13T05:16:31.458Z,9.67
2023-03-13T05:19:19.464Z,9.70
2023-03-13T05:22:13.989Z,9.73
2023-03-13T05:24:58.735Z,9.79
2023-03-13T05:27:47.152Z,9.82
2023-03-13T05:30:35.405Z,9.88
2023-03-13T05:33:21.837Z,9.91
2023-03-13T05:36:02.754Z,9.96
2023-03-13T05:38:42.872Z,10.01
2023-03-13T05:41:41.010Z,10.07
2023-03-13T05:44:27.886Z,10.09
2023-03-13T05:47:17.245Z,10.13
2023-03-13T05:49:57.002Z,10.17
2023-03-13T05:52:37.968Z,10.20
2023-03-13T05:55:29.077Z,10.24
2023-03-13T05:58:21.861Z,10.29
2023-03-13T06:00:57.453Z,10.31
2023-03-13T06:03:46.061Z,10.34
2023-03-13T06:06:15.525Z,10.37
2023-03-13T06:08:53.028Z,10.41
2023-03-13T06:11:22.115Z,10.42
2023-03-13T06:13:52.365Z,10.47
2023-03-13T06:16:49.367Z,10.47
2023-03-13T06:19:20.047Z,10.50
2023-03-13T06:21:47.799Z,10.54
2023-03-13T06:24:15.592Z,10.55
2023-03-13T06:26:43.517Z,10.60
2023-03-13T06:29:12.901Z,10.63
2023-03-13T06:31:40.915Z,10.64
2023-03-13T06:34:09.651Z,10.67
2023-03-13T06:36:37.576Z,10.70
2023-03-13T06:39:05.774Z,10.71
2023-03-13T06:41:34.036Z,10.75
2023-03-13T06:44:01.758Z,10.78
2023-03-13T06:46:31.510Z,10.82
2023-03-13T06:49:00.794Z,10.84
2023-03-13T06:51:28.763Z,10.85
2023-03-13T06:53:56.681Z,10.86
2023-03-13T06:56:25.074Z,10.90
2023-03-13T06:58:52.814Z,10.92
2023-03-13T07:01:21.004Z,10.94
2023-03-13T07:03:50.489Z,10.98
2023-03-13T07:06:18.970Z,10.99
2023-03-13T07:08:46.851Z,11.00
2023-03-13T07:11:17.092Z,11.03
2023-03-13T07:13:45.035Z,11.05
2023-03-13T07:16:14.393Z,11.06
2023-03-13T07:18:44.503Z,11.09
2023-03-13T07:21:14.618Z,11.12
2023-03-13T07:23:42.504Z,11.12
2023-03-13T07:26:14.424Z,11.15
2023-03-13T07:28:42.922Z,11.14
2023-03-13T07:31:13.464Z,11.18
2023-03-13T07:33:41.387Z,11.18
2023-03-13T07:36:10.516Z,11.21
2023-03-13T07:38:39.806Z,11.24
2023-03-13T07:41:07.936Z,11.25
2023-03-13T07:43:35.839Z,11.26
2023-03-13T07:46:06.160Z,11.30
2023-03-13T07:48:36.261Z,11.31
2023-03-13T07:51:05.694Z,11.32
2023-03-13T07:53:33.622Z,11.34
2023-03-13T07:56:05.433Z,11.38
2023-03-13T07:58:35.360Z,11.38
2023-03-13T08:01:08.929Z,11.41
2023-03-13T08:03:36.890Z,11.42
2023-03-13T08:06:06.981Z,11.45
2023-03-13T08:08:35.424Z,11.46
2023-03-13T08:11:07.745Z,11.49
2023-03-13T08:13:36.631Z,11.47
2023-03-13T08:16:06.516Z,11.52
2023-03-13T08:18:35.748Z,11.53
2023-03-13T08:21:04.878Z,11.53
2023-03-13T08:23:32.989Z,11.56
2023-03-13T08:26:07.374Z,11.59
2023-03-13T08:28:36.435Z,11.58
2023-03-13T08:31:12.640Z,11.63
2023-03-13T08:33:41.225Z,11.61
2023-03-13T08:36:11.408Z,11.64
2023-03-13T08:38:39.855Z,11.63
2023-03-13T08:41:09.141Z,11.68
2023-03-13T08:43:37.170Z,11.68
2023-03-13T08:46:05.244Z,11.69
2023-03-13T08:48:33.197Z,11.71
2023-03-13T08:51:02.921Z,11.73
2023-03-13T08:53:31.281Z,11.72
2023-03-13T08:55:59.182Z,11.75
2023-03-13T08:58:29.162Z,11.80
2023-03-13T09:01:03.201Z,11.81
2023-03-13T09:03:31.082Z,11.81
2023-03-13T09:05:59.239Z,11.82
2023-03-13T09:08:27.739Z,11.84
2023-03-13T09:10:59.605Z,11.89
2023-03-13T09:13:30.939Z,11.88
2023-03-13T09:15:59.887Z,11.90
2023-03-13T09:18:28.363Z,11.93
2023-03-13T09:20:56.375Z,11.93
2023-03-13T09:23:25.213Z,11.96
2023-03-13T09:25:54.695Z,11.97
2023-03-13T09:28:23.300Z,11.98
2023-03-13T09:30:53.043Z,12.01
2023-03-13T09:33:23.805Z,12.02
2023-03-13T09:35:52.091Z,12.03
2023-03-13T09:38:21.328Z,12.05
2023-03-13T09:41:05.356Z,12.07
2023-03-13T09:43:42.148Z,12.09
2023-03-13T09:46:19.458Z,12.13
2023-03-13T09:48:52.125Z,12.14
2023-03-13T09:51:25.986Z,12.15
2023-03-13T09:53:59.433Z,12.19
2023-03-13T09:56:32.227Z,12.22
2023-03-13T09:59:04.838Z,12.21
2023-03-13T10:01:36.344Z,12.25
2023-03-13T10:04:09.394Z,12.29
2023-03-13T10:06:42.508Z,12.32
2023-03-13T10:09:20.237Z,12.35
2023-03-13T10:11:55.784Z,12.39
2023-03-13T10:14:30.974Z,12.42
2023-03-13T10:17:08.528Z,12.47
2023-03-13T10:19:38.529Z,12.49
2023-03-13T10:22:14.460Z,12.55
2023-03-13T10:24:51.676Z,12.60
2023-03-13T10:27:19.795Z,12.61
2023-03-13T10:29:47.666Z,12.65
2023-03-13T10:32:18.793Z,12.70
2023-03-13T10:34:51.431Z,12.72
2023-03-13T10:37:23.562Z,12.75
2023-03-13T10:39:51.770Z,12.76
2023-03-13T10:42:24.804Z,12.85
2023-03-13T10:44:59.446Z,12.88
2023-03-13T10:47:34.393Z,12.91
2023-03-13T10:50:04.117Z,12.93
2023-03-13T10:52:43.659Z,12.99
2023-03-13T10:55:13.754Z,13.00
2023-03-13T10:57:53.697Z,13.05
2023-03-13T11:00:31.119Z,13.08
2023-03-13T11:03:00.606Z,13.11
2023-03-13T11:05:34.538Z,13.14
2023-03-13T11:08:19.949Z,13.19
2023-03-13T11:10:59.475Z,13.20
2023-03-13T11:13:40.936Z,13.24
2023-03-13T11:16:23.436Z,13.27
2023-03-13T11:19:11.315Z,13.25
2023-03-13T11:21:49.995Z,13.33
2023-03-13T11:24:26.447Z,13.35
2023-03-13T11:27:05.351Z,13.37
2023-03-13T11:29:43.618Z,13.42
2023-03-13T11:32:23.994Z,13.45
2023-03-13T11:34:59.520Z,13.49
2023-03-13T11:37:32.552Z,13.52
2023-03-13T11:40:10.895Z,13.56
2023-03-13T11:42:53.651Z,13.61
2023-03-13T11:45:38.552Z,13.64
2023-03-13T11:48:17.248Z,13.69
2023-03-13T11:50:52.719Z,13.73
2023-03-13T11:53:52.217Z,13.75
2023-03-13T11:56:24.049Z,13.82
2023-03-13T11:59:10.341Z,13.89
2023-03-13T12:01:44.913Z,14.03
2023-03-13T12:04:21.533Z,14.14
2023-03-13T12:06:57.589Z,14.28
2023-03-13T12:09:29.775Z,14.36
2023-03-13T12:12:03.788Z,14.48
2023-03-13T12:14:37.493Z,14.59
2023-03-13T12:17:10.846Z,14.68
2023-03-13T12:19:46.040Z,14.77
2023-03-13T12:22:21.365Z,14.86
2023-03-13T12:24:56.435Z,14.93
2023-03-13T12:27:32.539Z,14.99
2023-03-13T12:30:04.498Z,15.04
2023-03-13T12:32:37.308Z,15.08
2023-03-13T12:35:16.426Z,15.16
2023-03-13T12:37:53.976Z,15.20
2023-03-13T12:40:28.403Z,15.23
2023-03-13T12:42:59.530Z,15.25
2023-03-13T12:45:29.471Z,15.27
2023-03-13T12:48:24.395Z,15.27
2023-03-13T12:51:09.763Z,15.31
2023-03-13T12:54:11.165Z,15.31
2023-03-13T12:56:50.263Z,15.37
2023-03-13T12:59:23.178Z,15.39
2023-03-13T13:01:54.584Z,15.41
2023-03-13T13:04:25.182Z,15.42
2023-03-13T13:07:01.816Z,15.44
2023-03-13T13:09:32.837Z,15.43
2023-03-13T13:12:04.200Z,15.45
2023-03-13T13:15:01.741Z,15.40
2023-03-13T13:17:55.897Z,15.44
2023-03-13T13:20:57.641Z,15.40
2023-03-13T13:23:34.978Z,15.45
2023-03-13T13:26:47.556Z,15.46
2023-03-13T13:29:54.133Z,15.41
2023-03-13T13:32:32.394Z,15.45
2023-03-13T13:35:06.346Z,15.47
2023-03-13T13:37:34.859Z,15.47
2023-03-13T13:40:22.556Z,15.49
2023-03-13T13:42:57.396Z,15.50
2023-03-13T13:45:30.625Z,15.52
2023-03-13T13:48:34.144Z,15.51
2023-03-13T13:51:25.491Z,15.52
2023-03-13T13:54:04.126Z,15.55
2023-03-13T13:56:47.944Z,15.55
2023-03-13T13:59:43.679Z,15.54
2023-03-13T14:02:22.948Z,15.58
2023-03-13T14:05:01.174Z,15.59
2023-03-13T14:07:33.584Z,15.58
2023-03-13T14:10:07.469Z,15.55
2023-03-13T14:12:36.631Z,15.57
2023-03-13T14:15:15.196Z,15.59
2023-03-13T14:17:47.128Z,15.59
2023-03-13T14:20:23.061Z,15.58
2023-03-13T14:22:53.691Z,15.59
2023-03-13T14:25:21.951Z,15.60
2023-03-13T14:27:50.729Z,15.61
2023-03-13T14:30:20.839Z,15.63
2023-03-13T14:32:51.610Z,15.63
2023-03-13T14:35:22.376Z,15.63
2023-03-13T14:37:52.310Z,15.64
2023-03-13T14:40:26.760Z,15.67
2023-03-13T14:42:57.134Z,15.66
2023-03-13T14:45:28.926Z,15.67
2023-03-13T14:48:03.634Z,15.67
2023-03-13T14:50:31.691Z,15.65
2023-03-13T14:53:05.360Z,15.67
2023-03-13T14:55:35.541Z,15.65
2023-03-13T14:58:05.445Z,15.64
2023-03-13T15:00:37.467Z,15.64
2023-03-13T15:03:31.722Z,15.57
2023-03-13T15:06:18.110Z,15.60
2023-03-13T15:08:48.034Z,15.58
2023-03-13T15:11:27.780Z,15.60
2023-03-13T15:13:56.202Z,15.56
2023-03-13T15:16:25.293Z,15.57
2023-03-13T15:18:56.218Z,15.56
2023-03-13T15:21:28.075Z,15.55
2023-03-13T15:23:59.640Z,15.51
2023-03-13T15:26:27.862Z,15.49
2023-03-13T15:28:56.285Z,15.50
2023-03-13T15:31:28.867Z,15.51
2023-03-13T15:34:00.597Z,15.48
2023-03-13T15:36:29.944Z,15.47
2023-03-13T15:38:57.729Z,15.47
2023-03-13T15:41:25.740Z,15.46
2023-03-13T15:43:55.389Z,15.47
2023-03-13T15:46:24.958Z,15.46
2023-03-13T15:48:53.962Z,15.45
2023-03-13T15:51:23.096Z,15.46
2023-03-13T15:53:53.113Z,15.44
2023-03-13T15:56:23.405Z,15.43
2023-03-13T15:58:52.088Z,15.42
2023-03-13T16:01:22.294Z,15.41
2023-03-13T16:03:50.266Z,15.40
2023-03-13T16:06:20.704Z,15.42
2023-03-13T16:08:49.911Z,15.42
2023-03-13T16:11:18.207Z,15.40
2023-03-13T16:13:46.204Z,15.41
2023-03-13T16:16:21.338Z,15.43
2023-03-13T16:18:50.263Z,15.39
2023-03-13T16:21:21.325Z,15.40
2023-03-13T16:23:50.834Z,15.39
2023-03-13T16:26:20.722Z,15.37
2023-03-13T16:28:49.248Z,15.35
2023-03-13T16:31:21.955Z,15.36
2023-03-13T16:33:52.363Z,15.05
2023-03-13T16:36:23.135Z,15.26
2023-03-13T16:38:53.001Z,15.28
2023-03-13T16:41:23.017Z,15.26
2023-03-13T16:43:51.400Z,15.22
2023-03-13T16:46:21.471Z,15.21
2023-03-13T16:48:50.807Z,15.18
2023-03-13T16:51:20.385Z,15.15
2023-03-13T16:53:49.965Z,15.13
2023-03-13T16:56:24.295Z,15.12
2023-03-13T16:58:52.645Z,15.07
2023-03-13T17:01:20.659Z,15.04
2023-03-13T17:03:48.690Z,15.02
2023-03-13T17:06:18.928Z,15.00
2023-03-13T17:08:47.040Z,14.97
2023-03-13T17:11:17.970Z,14.96
2023-03-13T17:13:48.762Z,14.92
2023-03-13T17:16:18.927Z,14.90
2023-03-13T17:18:49.949Z,14.90
2023-03-13T17:21:19.797Z,14.87
2023-03-13T17:23:47.739Z,14.82
2023-03-13T17:26:18.257Z,14.82
2023-03-13T17:28:49.980Z,14.81
2023-03-13T17:31:18.580Z,14.76
2023-03-13T17:33:47.108Z,14.75
2023-03-13T17:36:20.803Z,14.75
2023-03-13T17:38:50.326Z,14.72
2023-03-13T17:41:20.539Z,14.70
2023-03-13T17:43:50.921Z,14.70
2023-03-13T17:46:21.277Z,14.68
2023-03-13T17:48:51.117Z,14.67
2023-03-13T17:51:22.753Z,14.66
2023-03-13T17:53:52.385Z,14.64
2023-03-13T17:56:21.928Z,14.62
2023-03-13T17:58:54.413Z,14.62
2023-03-13T18:01:23.625Z,14.58
2023-03-13T18:03:52.456Z,14.59
2023-03-13T18:06:23.264Z,14.58
2023-03-13T18:08:52.766Z,14.56
2023-03-13T18:11:22.190Z,14.56
2023-03-13T18:13:51.624Z,14.54
2023-03-13T18:16:23.991Z,14.53
2023-03-13T18:18:52.004Z,14.47
2023-03-13T18:21:21.083Z,14.46
2023-03-13T18:23:48.891Z,14.46
2023-03-13T18:26:30.002Z,14.46
2023-03-13T18:29:01.137Z,14.41
2023-03-13T18:31:30.559Z,14.39
2023-03-13T18:34:00.105Z,14.38
2023-03-13T18:36:28.483Z,14.36
2023-03-13T18:38:57.525Z,14.35
2023-03-13T18:41:25.736Z,14.32
2023-03-13T18:43:53.551Z,14.31
2023-03-13T18:46:26.656Z,14.31
2023-03-13T18:48:55.504Z,14.28
2023-03-13T18:51:25.733Z,14.27
2023-03-13T18:53:54.219Z,14.25
2023-03-13T18:56:24.932Z,14.23
2023-03-13T18:58:54.268Z,14.21
2023-03-13T19:01:25.639Z,14.21
2023-03-13T19:03:54.234Z,14.17
2023-03-13T19:06:25.204Z,14.16
2023-03-13T19:08:55.664Z,14.13
2023-03-13T19:11:27.150Z,14.12
2023-03-13T19:13:55.470Z,14.09
2023-03-13T19:16:30.512Z,14.07
2023-03-13T19:19:02.209Z,14.05
2023-03-13T19:21:31.927Z,14.02
2023-03-13T19:24:00.187Z,14.01
2023-03-13T19:26:33.093Z,14.03
2023-03-13T19:29:00.981Z,13.98
2023-03-13T19:31:30.106Z,13.98
2023-03-13T19:33:58.030Z,13.96
2023-03-13T19:36:30.239Z,13.94
2023-03-13T19:38:58.350Z,13.91
2023-03-13T19:41:26.120Z,13.91
2023-03-13T19:43:53.923Z,13.90
2023-03-13T19:46:25.546Z,13.90
2023-03-13T19:48:56.554Z,13.90
2023-03-13T19:51:25.548Z,13.87
2023-03-13T19:53:53.726Z,13.86
2023-03-13T19:56:23.713Z,13.86
2023-03-13T19:58:53.305Z,13.84
2023-03-13T20:01:21.194Z,13.83
2023-03-13T20:03:49.107Z,13.82
2023-03-13T20:06:20.481Z,13.83
2023-03-13T20:08:48.461Z,13.81
2023-03-13T20:11:17.488Z,13.79
2023-03-13T20:13:45.543Z,13.77
2023-03-13T20:16:13.497Z,13.77
2023-03-13T20:18:43.298Z,13.77
2023-03-13T20:21:11.741Z,13.75
2023-03-13T20:23:40.931Z,13.74
2023-03-13T20:26:11.806Z,13.73
2023-03-13T20:28:41.015Z,13.70
2023-03-13T20:31:09.529Z,13.68
2023-03-13T20:33:38.049Z,13.65
2023-03-13T20:36:08.175Z,13.65
2023-03-13T20:38:36.341Z,13.62
2023-03-13T20:41:06.278Z,13.61
2023-03-13T20:43:34.770Z,13.58
2023-03-13T20:46:03.200Z,13.55
2023-03-13T20:48:31.281Z,13.54
2023-03-13T20:51:01.997Z,13.53
2023-03-13T20:53:30.034Z,13.49
2023-03-13T20:55:57.918Z,13.49
2023-03-13T20:58:27.231Z,13.49
2023-03-13T21:00:58.893Z,13.45
2023-03-13T21:03:26.979Z,13.44
2023-03-13T21:05:54.976Z,13.42
2023-03-13T21:08:22.884Z,13.42
2023-03-13T21:10:50.928Z,13.41
2023-03-13T21:13:18.847Z,13.39
2023-03-13T21:15:48.008Z,13.39
2023-03-13T21:18:15.978Z,13.36
2023-03-13T21:20:43.749Z,13.35
2023-03-13T21:23:16.575Z,13.34
2023-03-13T21:25:47.599Z,13.33
2023-03-13T21:28:17.965Z,13.33
2023-03-13T21:30:45.852Z,13.29
2023-03-13T21:33:14.964Z,13.31
2023-03-13T21:35:42.946Z,13.28
2023-03-13T21:38:10.750Z,13.26
2023-03-13T21:40:40.252Z,13.27
2023-03-13T21:43:08.253Z,13.23
2023-03-13T21:45:36.166Z,13.23
2023-03-13T21:48:04.548Z,13.21
2023-03-13T21:50:33.836Z,13.22
2023-03-13T21:53:01.721Z,13.18
2023-03-13T21:55:29.499Z,13.17
2023-03-13T21:57:57.338Z,13.15
2023-03-13T22:00:25.244Z,13.14
2023-03-13T22:02:52.971Z,13.12
2023-03-13T22:05:22.340Z,13.09
2023-03-13T22:07:51.400Z,13.09
2023-03-13T22:10:19.407Z,13.07
2023-03-13T22:12:47.165Z,13.05
2023-03-13T22:15:14.911Z,13.02
2023-03-13T22:17:42.678Z,13.02
2023-03-13T22:20:11.625Z,12.99
2023-03-13T22:22:39.327Z,12.97
2023-03-13T22:25:09.452Z,12.97
2023-03-13T22:27:37.185Z,12.93
2023-03-13T22:30:05.943Z,12.92
2023-03-13T22:32:33.751Z,12.88
2023-03-13T22:35:01.510Z,12.87
2023-03-13T22:37:29.366Z,12.83
2023-03-13T22:39:57.151Z,12.82
2023-03-13T22:42:26.921Z,12.80
2023-03-13T22:44:55.721Z,12.76
2023-03-13T22:47:24.650Z,12.75
2023-03-13T22:49:53.723Z,12.74
2023-03-13T22:52:22.157Z,12.72
2023-03-13T22:54:49.937Z,12.71
2023-03-13T22:57:17.700Z,12.70
2023-03-13T22:59:46.828Z,12.69
2023-03-13T23:02:14.590Z,12.66
2023-03-13T23:04:42.429Z,12.65
2023-03-13T23:07:10.117Z,12.64
2023-03-13T23:09:37.856Z,12.64
2023-03-13T23:12:05.919Z,12.62
2023-03-13T23:14:33.783Z,12.61
2023-03-13T23:17:03.297Z,12.62
2023-03-13T23:19:34.211Z,12.59
2023-03-13T23:22:02.128Z,12.58
2023-03-13T23:24:30.455Z,12.57
2023-03-13T23:26:58.370Z,12.56
2023-03-13T23:29:26.086Z,12.54
2023-03-13T23:31:53.874Z,12.53
2023-03-13T23:34:23.044Z,12.54
2023-03-13T23:36:50.924Z,12.52
2023-03-13T23:39:18.662Z,12.52
2023-03-13T23:41:46.392Z,12.50
2023-03-13T23:44:14.127Z,12.50
2023-03-13T23:46:41.890Z,12.49
2023-03-13T23:49:09.681Z,12.49
2023-03-13T23:51:38.811Z,12.51
2023-03-13T23:54:06.666Z,12.49
2023-03-13T23:56:34.999Z,12.49
2023-03-13T23:59:02.747Z,12.50
